createdAt,value
2018-04-18T00:01:54.024Z,77.86
2018-04-18T00:04:21.589Z,77.87
2018-04-18T00:06:49.177Z,78.40
2018-04-18T00:09:16.740Z,77.67
2018-04-18T00:11:44.369Z,77.50
2018-04-18T00:14:11.932Z,77.92
2018-04-18T00:16:39.740Z,78.11
2018-04-18T00:19:07.316Z,78.04
2018-04-18T00:21:34.886Z,78.36
2018-04-18T00:24:02.604Z,78.35
2018-04-18T00:26:30.215Z,78.48
2018-04-18T00:28:57.921Z,78.62
2018-04-18T00:31:25.748Z,78.79
2018-04-18T00:33:53.306Z,78.89
2018-04-18T00:36:20.897Z,79.14
2018-04-18T00:38:48.469Z,79.00
2018-04-18T00:41:16.042Z,78.68
2018-04-18T00:43:43.642Z,79.65
2018-04-18T00:46:11.455Z,80.26
2018-04-18T00:48:39.020Z,80.81
2018-04-18T00:51:06.612Z,81.06
2018-04-18T00:53:34.200Z,81.43
2018-04-18T00:56:01.779Z,81.86
2018-04-18T00:58:29.351Z,82.07
2018-04-18T01:00:57.163Z,81.80
2018-04-18T01:03:24.732Z,81.45
2018-04-18T01:05:52.348Z,81.30
2018-04-18T01:08:19.921Z,81.36
2018-04-18T01:10:47.504Z,81.38
2018-04-18T01:13:15.076Z,81.21
2018-04-18T01:15:42.748Z,80.94
2018-04-18T01:18:10.378Z,80.75
2018-04-18T01:20:38.106Z,80.41
2018-04-18T01:23:05.668Z,80.30
2018-04-18T01:25:33.237Z,80.09
2018-04-18T01:28:00.960Z,79.79
2018-04-18T01:30:28.588Z,80.18
2018-04-18T01:32:56.397Z,80.00
2018-04-18T01:35:24.216Z,81.04
2018-04-18T01:37:51.788Z,81.20
2018-04-18T01:40:19.552Z,81.49
2018-04-18T01:42:47.361Z,81.94
2018-04-18T01:45:15.193Z,82.55
2018-04-18T01:47:43.009Z,82.48
2018-04-18T01:50:10.826Z,82.66
2018-04-18T01:52:38.561Z,82.85
2018-04-18T01:55:06.188Z,82.20
2018-04-18T01:57:33.944Z,82.23
2018-04-18T02:00:01.517Z,82.26
2018-04-18T02:02:29.080Z,82.09
2018-04-18T02:04:56.640Z,81.74
2018-04-18T02:07:24.256Z,81.76
2018-04-18T02:09:51.971Z,81.51
2018-04-18T02:12:19.536Z,81.72
2018-04-18T02:14:47.309Z,82.23
2018-04-18T02:17:14.879Z,82.48
2018-04-18T02:19:42.480Z,82.29
2018-04-18T02:22:10.045Z,82.26
2018-04-18T02:24:37.880Z,82.50
2018-04-18T02:27:05.596Z,82.37
2018-04-18T02:29:33.196Z,82.50
2018-04-18T02:32:00.815Z,82.85
2018-04-18T02:34:28.389Z,82.94
2018-04-18T02:36:56.159Z,82.81
2018-04-18T02:39:23.777Z,82.99
2018-04-18T02:41:51.605Z,83.05
2018-04-18T02:44:19.423Z,83.22
2018-04-18T02:46:46.997Z,83.69
2018-04-18T02:49:14.859Z,83.74
2018-04-18T02:51:42.803Z,83.93
2018-04-18T02:54:10.598Z,84.41
2018-04-18T02:56:38.185Z,84.13
2018-04-18T02:59:05.811Z,84.79
2018-04-18T03:01:33.599Z,84.69
2018-04-18T03:04:01.263Z,84.72
2018-04-18T03:06:28.994Z,85.04
2018-04-18T03:08:56.556Z,85.58
2018-04-18T03:11:24.142Z,85.76
2018-04-18T03:13:51.709Z,85.73
2018-04-18T03:16:19.353Z,85.42
2018-04-18T03:18:46.956Z,85.57
2018-04-18T03:21:14.531Z,85.82
2018-04-18T03:23:42.271Z,85.90
2018-04-18T03:26:09.873Z,85.86
2018-04-18T03:28:37.448Z,85.83
2018-04-18T03:31:05.009Z,85.72
2018-04-18T03:33:32.637Z,85.36
2018-04-18T03:36:00.442Z,85.46
2018-04-18T03:38:28.004Z,85.71
2018-04-18T03:40:55.601Z,85.59
2018-04-18T03:43:23.257Z,85.55
2018-04-18T03:45:50.836Z,85.68
2018-04-18T03:48:18.562Z,85.58
2018-04-18T03:50:46.165Z,85.48
2018-04-18T03:53:13.895Z,85.35
2018-04-18T03:55:41.479Z,85.08
2018-04-18T03:58:09.057Z,84.78
2018-04-18T04:00:36.665Z,84.55
2018-04-18T04:03:04.361Z,84.16
2018-04-18T04:05:31.933Z,83.98
2018-04-18T04:07:59.737Z,84.04
2018-04-18T04:10:27.373Z,83.46
2018-04-18T04:12:55.395Z,83.69
2018-04-18T04:15:22.972Z,83.58
2018-04-18T04:18:03.208Z,83.27
2018-04-18T04:20:42.815Z,82.94
2018-04-18T04:23:21.987Z,82.61
2018-04-18T04:25:49.580Z,82.32
2018-04-18T04:28:17.199Z,81.98
2018-04-18T04:30:44.769Z,81.50
2018-04-18T04:33:12.337Z,80.92
2018-04-18T04:35:40.054Z,80.41
2018-04-18T04:38:07.780Z,79.45
2018-04-18T04:40:35.341Z,79.51
2018-04-18T04:43:03.169Z,79.21
2018-04-18T04:45:30.741Z,78.73
2018-04-18T04:47:58.553Z,78.73
2018-04-18T04:50:26.272Z,78.26
2018-04-18T04:52:53.920Z,77.71
2018-04-18T04:55:21.599Z,76.53
2018-04-18T04:57:49.175Z,75.71
2018-04-18T05:00:16.754Z,73.35
2018-04-18T05:02:44.320Z,72.41
2018-04-18T05:05:11.974Z,71.07
2018-04-18T05:07:39.569Z,70.12
2018-04-18T05:10:07.308Z,68.09
2018-04-18T05:12:34.916Z,65.67
2018-04-18T05:15:02.559Z,64.44
2018-04-18T05:17:30.136Z,63.43
2018-04-18T05:19:57.850Z,64.06
2018-04-18T05:22:25.568Z,63.76
2018-04-18T05:24:53.309Z,63.68
2018-04-18T05:27:20.946Z,62.82
2018-04-18T05:29:48.684Z,61.41
2018-04-18T05:32:16.289Z,59.95
2018-04-18T05:34:43.889Z,60.71
2018-04-18T05:37:11.513Z,61.80
2018-04-18T05:39:39.077Z,62.75
2018-04-18T05:42:06.793Z,63.42
2018-04-18T05:44:34.574Z,64.00
2018-04-18T05:47:02.145Z,62.55
2018-04-18T05:49:29.718Z,59.99
2018-04-18T05:51:57.533Z,56.48
2018-04-18T05:54:25.443Z,53.22
2018-04-18T05:56:53.154Z,50.83
2018-04-18T05:59:20.764Z,49.69
2018-04-18T06:01:48.392Z,48.23
2018-04-18T06:04:16.219Z,48.20
2018-04-18T06:06:43.870Z,49.49
2018-04-18T06:09:11.449Z,51.62
2018-04-18T06:11:39.624Z,53.11
2018-04-18T06:14:07.391Z,54.96
2018-04-18T06:16:34.998Z,56.26
2018-04-18T06:19:02.719Z,57.18
2018-04-18T06:21:30.448Z,57.27
2018-04-18T06:23:58.263Z,57.38
2018-04-18T06:26:25.832Z,57.21
2018-04-18T06:28:53.600Z,55.88
2018-04-18T06:31:21.420Z,54.71
2018-04-18T06:33:48.976Z,53.75
2018-04-18T06:36:16.590Z,54.49
2018-04-18T06:38:44.373Z,54.98
2018-04-18T06:41:11.976Z,54.79
2018-04-18T06:43:39.552Z,55.35
2018-04-18T06:46:07.314Z,55.39
2018-04-18T06:48:34.938Z,55.19
2018-04-18T06:51:02.509Z,55.06
2018-04-18T06:53:30.130Z,55.79
2018-04-18T06:55:57.781Z,55.51
2018-04-18T06:58:25.341Z,55.11
2018-04-18T07:00:53.137Z,56.21
2018-04-18T07:03:20.699Z,56.34
2018-04-18T07:05:48.446Z,56.00
2018-04-18T07:08:16.008Z,54.71
2018-04-18T07:10:43.812Z,51.46
2018-04-18T07:13:11.526Z,47.58
2018-04-18T07:15:39.346Z,46.27
2018-04-18T07:18:06.924Z,47.80
2018-04-18T07:20:34.572Z,47.03
2018-04-18T07:23:02.178Z,47.48
2018-04-18T07:25:29.768Z,50.07
2018-04-18T07:27:57.598Z,50.48
2018-04-18T07:30:25.439Z,50.89
2018-04-18T07:32:53.009Z,51.79
2018-04-18T07:35:20.584Z,52.52
2018-04-18T07:37:48.408Z,52.48
2018-04-18T07:40:15.977Z,53.00
2018-04-18T07:42:43.540Z,53.15
2018-04-18T07:45:11.164Z,53.68
2018-04-18T07:47:38.733Z,55.09
2018-04-18T07:50:06.498Z,55.28
2018-04-18T07:52:34.081Z,53.13
2018-04-18T07:55:01.653Z,49.19
2018-04-18T07:57:29.258Z,49.71
2018-04-18T07:59:57.071Z,49.92
2018-04-18T08:02:24.775Z,52.85
2018-04-18T08:04:52.341Z,54.75
2018-04-18T08:07:20.046Z,55.73
2018-04-18T08:09:47.617Z,56.65
2018-04-18T08:12:15.181Z,57.29
2018-04-18T08:14:42.760Z,58.41
2018-04-18T08:17:10.324Z,57.15
2018-04-18T08:19:37.951Z,54.27
2018-04-18T08:22:05.554Z,52.58
2018-04-18T08:24:33.332Z,49.96
2018-04-18T08:27:01.069Z,48.87
2018-04-18T08:29:28.894Z,47.33
2018-04-18T08:31:56.706Z,44.24
2018-04-18T08:34:24.273Z,42.81
2018-04-18T08:36:51.919Z,41.90
2018-04-18T08:39:19.492Z,40.12
2018-04-18T08:41:47.280Z,39.13
2018-04-18T08:44:15.014Z,40.00
2018-04-18T08:46:42.607Z,39.65
2018-04-18T08:49:10.229Z,38.84
2018-04-18T08:51:38.051Z,37.62
2018-04-18T08:54:05.689Z,37.62
2018-04-18T08:56:33.278Z,40.80
2018-04-18T08:59:00.895Z,45.86
2018-04-18T09:01:28.482Z,47.11
2018-04-18T09:03:56.131Z,48.97
2018-04-18T09:06:23.743Z,50.98
2018-04-18T09:08:51.307Z,52.65
2018-04-18T09:11:18.924Z,52.92
2018-04-18T09:13:46.497Z,52.75
2018-04-18T09:16:14.060Z,50.25
2018-04-18T09:18:41.696Z,47.58
2018-04-18T09:21:09.280Z,44.47
2018-04-18T09:23:36.872Z,44.50
2018-04-18T09:26:04.701Z,45.97
2018-04-18T09:28:32.274Z,45.97
2018-04-18T09:31:00.012Z,42.46
2018-04-18T09:33:27.573Z,40.78
2018-04-18T09:35:55.148Z,39.83
2018-04-18T09:38:22.753Z,36.35
2018-04-18T09:40:50.326Z,36.36
2018-04-18T09:43:17.908Z,38.35
2018-04-18T09:45:45.472Z,38.46
2018-04-18T09:48:13.048Z,37.42
2018-04-18T09:50:40.781Z,35.80
2018-04-18T09:53:08.480Z,35.08
2018-04-18T09:55:36.053Z,36.64
2018-04-18T09:58:03.726Z,34.30
2018-04-18T10:00:37.005Z,33.04
2018-04-18T10:03:05.417Z,32.58
2018-04-18T10:05:33.052Z,32.09
2018-04-18T10:08:00.829Z,33.18
2018-04-18T10:10:28.441Z,33.99
2018-04-18T10:12:56.250Z,34.50
2018-04-18T10:15:23.821Z,35.30
2018-04-18T10:17:51.451Z,36.64
2018-04-18T10:20:19.016Z,37.80
2018-04-18T10:22:46.682Z,37.28
2018-04-18T10:25:14.460Z,37.93
2018-04-18T10:27:42.068Z,38.15
2018-04-18T10:30:09.667Z,38.09
2018-04-18T10:32:37.221Z,36.64
2018-04-18T10:35:05.119Z,36.78
2018-04-18T10:37:32.946Z,36.06
2018-04-18T10:40:00.765Z,34.77
2018-04-18T10:42:28.350Z,34.47
2018-04-18T10:44:55.951Z,35.79
2018-04-18T10:47:23.686Z,36.80
2018-04-18T10:49:51.273Z,37.91
2018-04-18T10:52:18.889Z,36.27
2018-04-18T10:54:46.516Z,35.02
2018-04-18T10:57:14.085Z,34.71
2018-04-18T10:59:41.652Z,35.10
2018-04-18T11:02:09.237Z,35.86
2018-04-18T11:04:37.046Z,36.65
2018-04-18T11:07:04.612Z,37.11
2018-04-18T11:09:32.226Z,38.78
2018-04-18T11:11:59.945Z,38.25
2018-04-18T11:14:27.536Z,38.26
2018-04-18T11:16:55.547Z,37.39
2018-04-18T11:19:23.355Z,37.61
2018-04-18T11:21:50.977Z,37.74
2018-04-18T11:24:18.692Z,37.86
2018-04-18T11:26:46.350Z,37.30
2018-04-18T11:29:13.931Z,36.87
2018-04-18T11:31:41.614Z,36.65
2018-04-18T11:34:09.332Z,36.55
2018-04-18T11:36:37.050Z,35.63
2018-04-18T11:39:04.700Z,36.10
2018-04-18T11:41:32.420Z,37.70
2018-04-18T11:44:00.153Z,37.10
2018-04-18T11:46:27.721Z,34.93
2018-04-18T11:48:55.303Z,35.31
2018-04-18T11:51:23.109Z,35.30
2018-04-18T11:53:50.745Z,34.85
2018-04-18T11:56:18.317Z,33.95
2018-04-18T11:58:45.878Z,36.26
2018-04-18T12:01:13.512Z,35.95
2018-04-18T12:03:41.080Z,35.78
2018-04-18T12:06:08.657Z,35.12
2018-04-18T12:08:36.419Z,34.39
2018-04-18T12:11:03.978Z,33.69
2018-04-18T12:13:31.758Z,32.45
2018-04-18T12:15:59.571Z,33.89
2018-04-18T12:18:27.188Z,34.82
2018-04-18T12:20:54.936Z,35.52
2018-04-18T12:23:22.505Z,35.68
2018-04-18T12:25:50.082Z,34.56
2018-04-18T12:28:17.747Z,32.98
2018-04-18T12:30:45.320Z,32.64
2018-04-18T12:33:12.883Z,32.57
2018-04-18T12:35:40.717Z,33.98
2018-04-18T12:38:08.325Z,34.50
2018-04-18T12:40:36.154Z,33.60
2018-04-18T12:43:03.720Z,35.11
2018-04-18T12:45:31.327Z,34.85
2018-04-18T12:47:59.110Z,35.35
2018-04-18T12:50:26.650Z,35.80
2018-04-18T12:52:54.443Z,36.38
2018-04-18T12:55:22.264Z,36.34
2018-04-18T12:57:49.908Z,36.16
2018-04-18T13:00:17.468Z,36.68
2018-04-18T13:02:45.080Z,35.82
2018-04-18T13:05:12.805Z,35.91
2018-04-18T13:07:40.550Z,35.02
2018-04-18T13:10:08.373Z,35.65
2018-04-18T13:12:36.191Z,35.93
2018-04-18T13:15:03.829Z,35.13
2018-04-18T13:17:31.410Z,35.00
2018-04-18T13:19:58.972Z,34.16
2018-04-18T13:22:26.534Z,33.63
2018-04-18T13:24:54.087Z,33.72
2018-04-18T13:27:21.783Z,34.37
2018-04-18T13:29:49.502Z,34.39
2018-04-18T13:32:17.234Z,35.69
2018-04-18T13:34:44.796Z,35.90
2018-04-18T13:37:12.348Z,36.90
2018-04-18T13:39:40.188Z,37.46
2018-04-18T13:42:07.800Z,36.80
2018-04-18T13:44:35.576Z,36.69
2018-04-18T13:47:03.156Z,36.84
2018-04-18T13:49:30.963Z,36.12
2018-04-18T13:51:58.547Z,37.01
2018-04-18T13:54:26.105Z,36.63
2018-04-18T13:56:53.698Z,37.09
2018-04-18T13:59:21.437Z,37.41
2018-04-18T14:01:49.141Z,36.72
2018-04-18T14:04:16.719Z,37.48
2018-04-18T14:06:44.266Z,37.16
2018-04-18T14:09:12.004Z,39.38
2018-04-18T14:11:39.826Z,38.44
2018-04-18T14:14:07.552Z,39.05
2018-04-18T14:16:35.130Z,39.46
2018-04-18T14:19:02.885Z,38.99
2018-04-18T14:21:30.696Z,39.28
2018-04-18T14:23:58.254Z,39.29
2018-04-18T14:26:25.924Z,39.06
2018-04-18T14:28:53.487Z,39.07
2018-04-18T14:31:21.250Z,39.67
2018-04-18T14:33:48.959Z,38.36
2018-04-18T14:36:16.572Z,38.02
2018-04-18T14:38:44.214Z,38.82
2018-04-18T14:41:11.779Z,38.13
2018-04-18T14:43:39.367Z,37.82
2018-04-18T14:46:07.177Z,37.29
2018-04-18T14:48:34.744Z,37.62
2018-04-18T14:51:02.512Z,37.95
2018-04-18T14:53:30.128Z,38.03
2018-04-18T14:55:57.949Z,38.08
2018-04-18T14:58:28.699Z,38.20
2018-04-18T15:00:56.309Z,38.52
2018-04-18T15:03:23.876Z,39.54
2018-04-18T15:05:51.612Z,39.56
2018-04-18T15:08:19.350Z,40.31
2018-04-18T15:10:46.972Z,40.96
2018-04-18T15:13:14.558Z,41.59
2018-04-18T15:15:42.195Z,41.37
2018-04-18T15:18:09.766Z,41.62
2018-04-18T15:20:37.341Z,41.85
2018-04-18T15:23:04.929Z,41.48
2018-04-18T15:25:32.561Z,41.66
2018-04-18T15:28:00.216Z,42.46
2018-04-18T15:30:27.776Z,42.88
2018-04-18T15:32:55.496Z,43.83
2018-04-18T15:35:23.093Z,43.64
2018-04-18T15:37:50.830Z,44.70
2018-04-18T15:40:18.398Z,44.88
2018-04-18T15:42:46.204Z,45.71
2018-04-18T15:45:13.816Z,45.56
2018-04-18T15:47:41.641Z,45.54
2018-04-18T15:50:09.222Z,45.70
2018-04-18T15:52:36.868Z,46.59
2018-04-18T15:55:04.448Z,47.07
2018-04-18T15:57:32.020Z,47.57
2018-04-18T15:59:59.730Z,47.47
2018-04-18T16:02:27.293Z,47.36
2018-04-18T16:04:54.864Z,47.70
2018-04-18T16:07:22.430Z,47.16
2018-04-18T16:09:50.016Z,47.26
2018-04-18T16:12:17.580Z,47.49
2018-04-18T16:14:45.237Z,46.92
2018-04-18T16:17:12.847Z,47.83
2018-04-18T16:19:40.679Z,47.10
2018-04-18T16:22:08.248Z,47.78
2018-04-18T16:24:35.999Z,46.99
2018-04-18T16:27:03.728Z,47.01
2018-04-18T16:29:43.136Z,47.30
2018-04-18T16:32:10.714Z,46.62
2018-04-18T16:34:38.275Z,46.67
2018-04-18T16:37:05.888Z,46.73
2018-04-18T16:39:33.551Z,47.15
2018-04-18T16:42:01.145Z,47.40
2018-04-18T16:44:28.858Z,47.91
2018-04-18T16:46:56.428Z,48.40
2018-04-18T16:49:23.997Z,48.94
2018-04-18T16:51:51.575Z,49.22
2018-04-18T16:54:19.367Z,49.95
2018-04-18T16:56:47.189Z,50.03
2018-04-18T16:59:14.796Z,50.52
2018-04-18T17:01:42.623Z,50.32
2018-04-18T17:04:10.176Z,50.92
2018-04-18T17:06:37.773Z,51.24
2018-04-18T17:09:05.397Z,51.19
2018-04-18T17:11:33.017Z,51.37
2018-04-18T17:14:00.571Z,51.69
2018-04-18T17:16:28.140Z,51.59
2018-04-18T17:18:55.714Z,52.41
2018-04-18T17:21:23.285Z,52.62
2018-04-18T17:23:50.997Z,52.31
2018-04-18T17:26:18.802Z,52.27
2018-04-18T17:28:46.652Z,52.65
2018-04-18T17:31:14.404Z,53.08
2018-04-18T17:33:41.975Z,53.27
2018-04-18T17:36:09.656Z,53.36
2018-04-18T17:38:37.283Z,53.48
2018-04-18T17:41:05.043Z,53.76
2018-04-18T17:43:32.606Z,54.07
2018-04-18T17:46:00.352Z,54.36
2018-04-18T17:48:28.166Z,54.72
2018-04-18T17:50:55.723Z,55.01
2018-04-18T17:53:23.503Z,55.21
2018-04-18T17:55:51.223Z,55.47
2018-04-18T17:58:19.041Z,55.69
2018-04-18T18:00:46.604Z,56.06
2018-04-18T18:03:14.220Z,56.12
2018-04-18T18:05:41.797Z,56.61
2018-04-18T18:08:09.393Z,57.02
2018-04-18T18:10:37.233Z,57.38
2018-04-18T18:13:04.828Z,58.25
2018-04-18T18:15:32.668Z,58.53
2018-04-18T18:18:00.259Z,58.94
2018-04-18T18:20:28.022Z,59.44
2018-04-18T18:22:55.610Z,59.61
2018-04-18T18:25:23.199Z,60.28
2018-04-18T18:27:50.800Z,60.59
2018-04-18T18:30:18.424Z,60.85
2018-04-18T18:32:46.004Z,61.48
2018-04-18T18:35:13.810Z,61.64
2018-04-18T18:37:41.630Z,62.01
2018-04-18T18:40:09.208Z,62.25
2018-04-18T18:42:36.967Z,62.45
2018-04-18T18:45:04.559Z,62.75
2018-04-18T18:47:32.220Z,63.08
2018-04-18T18:49:59.787Z,63.37
2018-04-18T18:52:27.538Z,63.61
2018-04-18T18:54:55.356Z,63.79
2018-04-18T18:57:22.933Z,63.81
2018-04-18T18:59:50.581Z,64.75
2018-04-18T19:02:18.249Z,64.66
2018-04-18T19:04:45.825Z,64.33
2018-04-18T19:07:13.388Z,64.26
2018-04-18T19:09:41.180Z,64.63
2018-04-18T19:12:08.799Z,64.67
2018-04-18T19:14:36.404Z,64.75
2018-04-18T19:17:04.008Z,65.28
2018-04-18T19:19:31.576Z,65.57
2018-04-18T19:21:59.355Z,66.19
2018-04-18T19:24:26.941Z,65.89
2018-04-18T19:26:54.512Z,65.98
2018-04-18T19:29:22.310Z,65.55
2018-04-18T19:31:49.892Z,65.46
2018-04-18T19:34:17.465Z,65.32
2018-04-18T19:36:45.124Z,65.36
2018-04-18T19:39:12.716Z,65.48
2018-04-18T19:41:40.499Z,65.76
2018-04-18T19:44:08.318Z,65.23
2018-04-18T19:46:36.828Z,65.32
2018-04-18T19:49:04.659Z,65.46
2018-04-18T19:51:32.340Z,65.49
2018-04-18T19:53:59.972Z,65.65
2018-04-18T19:56:27.536Z,66.44
2018-04-18T19:58:55.331Z,67.24
2018-04-18T20:01:23.148Z,69.96
2018-04-18T20:03:50.717Z,70.38
2018-04-18T20:06:18.493Z,70.13
2018-04-18T20:08:46.093Z,69.33
2018-04-18T20:11:13.709Z,67.08
2018-04-18T20:13:41.313Z,66.71
2018-04-18T20:16:08.905Z,66.36
2018-04-18T20:18:36.683Z,66.74
2018-04-18T20:21:04.353Z,66.69
2018-04-18T20:23:31.925Z,66.84
2018-04-18T20:25:59.730Z,67.47
2018-04-18T20:28:27.421Z,67.25
2018-04-18T20:30:54.980Z,67.27
2018-04-18T20:33:22.561Z,67.52
2018-04-18T20:35:50.153Z,67.87
2018-04-18T20:38:17.716Z,67.98
2018-04-18T20:40:45.559Z,67.88
2018-04-18T20:43:13.357Z,68.04
2018-04-18T20:45:40.921Z,68.18
2018-04-18T20:48:08.665Z,68.58
2018-04-18T20:50:36.286Z,68.50
2018-04-18T20:53:03.877Z,68.94
2018-04-18T20:55:31.527Z,69.00
2018-04-18T20:57:59.054Z,68.42
2018-04-18T21:00:26.673Z,68.02
2018-04-18T21:02:54.502Z,68.01
2018-04-18T21:05:22.319Z,67.97
2018-04-18T21:07:49.945Z,68.40
2018-04-18T21:10:17.535Z,68.45
2018-04-18T21:12:45.137Z,68.16
2018-04-18T21:15:12.790Z,68.34
2018-04-18T21:17:40.592Z,68.60
2018-04-18T21:20:08.176Z,68.59
2018-04-18T21:22:35.925Z,69.05
2018-04-18T21:25:03.650Z,69.09
2018-04-18T21:27:31.282Z,69.08
2018-04-18T21:29:58.848Z,69.16
2018-04-18T21:32:26.618Z,69.76
2018-04-18T21:34:54.185Z,69.50
2018-04-18T21:37:21.954Z,69.13
2018-04-18T21:39:49.564Z,69.44
2018-04-18T21:42:17.241Z,69.37
2018-04-18T21:44:44.818Z,69.60
2018-04-18T21:47:12.384Z,69.70
2018-04-18T21:49:39.952Z,69.98
2018-04-18T21:52:07.521Z,70.53
2018-04-18T21:54:35.279Z,70.46
2018-04-18T21:57:02.864Z,70.39
2018-04-18T21:59:30.501Z,70.39
2018-04-18T22:01:58.234Z,70.58
2018-04-18T22:04:25.800Z,70.63
2018-04-18T22:06:53.419Z,70.82
2018-04-18T22:09:21.193Z,71.13
2018-04-18T22:11:48.776Z,71.42
2018-04-18T22:14:16.344Z,71.35
2018-04-18T22:16:44.156Z,71.72
2018-04-18T22:19:11.729Z,71.65
2018-04-18T22:21:39.341Z,71.69
2018-04-18T22:24:06.917Z,71.75
2018-04-18T22:26:34.482Z,71.60
2018-04-18T22:29:02.227Z,71.47
2018-04-18T22:31:29.809Z,71.64
2018-04-18T22:33:57.436Z,71.47
2018-04-18T22:36:24.992Z,71.56
2018-04-18T22:38:52.580Z,71.82
2018-04-18T22:41:20.361Z,71.73
2018-04-18T22:43:48.100Z,71.35
2018-04-18T22:46:15.857Z,71.59
2018-04-18T22:48:43.424Z,71.66
2018-04-18T22:51:11.194Z,71.39
2018-04-18T22:53:38.787Z,71.77
2018-04-18T22:56:06.422Z,72.02
2018-04-18T22:58:34.148Z,71.58
2018-04-18T23:01:01.862Z,72.05
2018-04-18T23:03:29.575Z,72.09
2018-04-18T23:05:57.331Z,72.11
2018-04-18T23:08:24.911Z,72.39
2018-04-18T23:10:52.741Z,72.46
2018-04-18T23:13:20.559Z,72.65
2018-04-18T23:15:48.125Z,72.66
2018-04-18T23:18:15.699Z,72.54
2018-04-18T23:20:43.276Z,72.43
2018-04-18T23:23:10.913Z,72.29
2018-04-18T23:25:38.489Z,72.31
2018-04-18T23:28:06.157Z,72.31
2018-04-18T23:30:33.776Z,72.24
2018-04-18T23:33:01.376Z,72.32
2018-04-18T23:35:29.106Z,72.47
2018-04-18T23:37:56.839Z,72.84
2018-04-18T23:40:24.659Z,72.90
2018-04-18T23:42:52.284Z,72.82
2018-04-18T23:45:19.880Z,72.62
2018-04-18T23:47:47.498Z,73.05
2018-04-18T23:50:15.329Z,73.09
2018-04-18T23:52:42.993Z,73.22
2018-04-18T23:55:10.561Z,73.15
2018-04-18T23:57:38.387Z,73.05
